Time;durP1;ratioP1;P1;durP2;ratioP2;P2;SDS_P1;SDS_P2;PMS_P1;PMS_P2;Temp;Humidity;BMP_temperature;BMP_pressure;BME280_temperature;BME280_humidity;BME280_pressure;Samples;Min_cycle;Max_cycle;Signal;HPM_P1;HPM_P2
2023/10/10 00:06:08;;;;;;;34.45;21.33;;;;;;;16.23;70.80;100979.69;21087457;28;20222;-81
2023/10/10 00:16:11;;;;;;;32.13;21.00;;;;;;;16.42;70.00;100980.78;21088139;28;20198;-80
2023/10/10 00:26:14;;;;;;;35.65;22.63;;;;;;;16.26;69.73;100979.81;21071335;28;20305;-87
2023/10/10 00:36:22;;;;;;;34.90;22.08;;;;;;;15.58;72.68;100982.16;21074567;28;20207;-87
2023/10/10 00:46:28;;;;;;;38.70;24.42;;;;;;;15.86;71.81;100973.06;21069478;28;20317;-81
2023/10/10 00:56:30;;;;;;;44.97;29.25;;;;;;;15.99;71.49;100969.91;21079159;28;20316;-87
2023/10/10 01:06:39;;;;;;;41.08;28.55;;;;;;;15.77;71.77;100970.31;21075337;28;20225;-87
2023/10/10 01:16:40;;;;;;;39.85;25.27;;;;;;;15.68;72.76;100958.22;21085676;28;20190;-81
2023/10/10 01:26:45;;;;;;;36.78;22.92;;;;;;;15.64;73.37;100955.22;21071833;28;20214;-85
2023/10/10 01:36:50;;;;;;;34.55;23.30;;;;;;;15.90;71.97;100959.84;21095663;28;20208;-80
2023/10/10 01:46:53;;;;;;;26.42;18.15;;;;;;;15.58;73.07;100953.81;21085777;28;20314;-81
2023/10/10 01:56:55;;;;;;;33.22;20.67;;;;;;;15.71;71.81;100951.84;21059437;28;20330;-85
2023/10/10 02:07:04;;;;;;;34.80;22.10;;;;;;;15.72;71.96;100940.13;21079796;28;20561;-81
2023/10/10 02:17:19;;;;;;;30.20;21.80;;;;;;;15.64;72.36;100943.88;21080603;28;20191;-80
2023/10/10 02:27:29;;;;;;;37.25;23.38;;;;;;;16.10;70.75;100939.09;21049625;28;20215;-81
2023/10/10 02:37:45;;;;;;;35.67;23.35;;;;;;;16.00;72.05;100940.34;21067571;28;20201;-86
2023/10/10 02:47:53;;;;;;;32.85;22.88;;;;;;;15.68;72.38;100933.50;21067148;28;20222;-81
2023/10/10 02:57:55;;;;;;;35.53;21.42;;;;;;;15.79;72.36;100929.06;21081986;28;20234;-81
2023/10/10 03:07:58;;;;;;;31.60;20.67;;;;;;;15.76;72.70;100926.94;21060025;28;20218;-83
2023/10/10 03:18:18;;;;;;;31.10;18.77;;;;;;;15.36;73.71;100929.44;21053067;28;20194;-85
2023/10/10 03:28:30;;;;;;;35.05;20.40;;;;;;;16.07;71.04;100922.75;21033223;28;20222;-81
2023/10/10 05:32:11;;;;;;;62.88;31.15;;;;;;;14.95;74.75;100872.72;21040340;28;20207;-80
2023/10/10 05:42:20;;;;;;;60.28;29.30;;;;;;;14.71;75.30;100856.41;21066313;28;20226;-82
2023/10/10 05:52:23;;;;;;;65.38;30.77;;;;;;;14.65;75.70;100869.16;21035043;28;20662;-82
2023/10/10 06:02:27;;;;;;;65.28;31.58;;;;;;;14.67;74.79;100866.81;21065791;28;20614;-81
2023/10/10 06:12:30;;;;;;;64.20;32.03;;;;;;;14.78;73.96;100859.56;21023461;28;20257;-87
2023/10/10 06:22:32;;;;;;;60.42;31.92;;;;;;;15.13;71.82;100856.47;21063459;28;20222;-81
2023/10/10 06:32:35;;;;;;;60.10;33.28;;;;;;;14.63;74.00;100848.81;21022132;28;20203;-87
2023/10/10 06:42:37;;;;;;;62.25;35.17;;;;;;;14.51;74.13;100857.25;21030151;28;20254;-84
2023/10/10 06:52:43;;;;;;;55.13;31.95;;;;;;;14.39;74.29;100839.00;21046731;28;20241;-81
2023/10/10 07:02:48;;;;;;;57.17;33.65;;;;;;;15.17;71.06;100834.75;21060940;28;20584;-81
2023/10/10 07:12:54;;;;;;;58.20;35.53;;;;;;;14.47;73.14;100831.59;21037254;28;20256;-80
2023/10/10 07:22:59;;;;;;;53.60;35.25;;;;;;;15.50;69.18;100838.41;21064245;28;20222;-81
2023/10/10 07:33:03;;;;;;;51.58;31.98;;;;;;;15.22;69.36;100834.50;21065419;28;20226;-81
2023/10/10 07:43:07;;;;;;;47.63;30.48;;;;;;;15.48;69.02;100840.75;21056798;28;20267;-81
2023/10/10 07:53:12;;;;;;;41.97;25.92;;;;;;;15.55;67.35;100841.03;21083240;28;20226;-80
2023/10/10 08:03:19;;;;;;;37.92;23.30;;;;;;;15.92;65.73;100832.59;21053252;28;20321;-81
2023/10/10 08:13:28;;;;;;;32.78;20.27;;;;;;;15.89;65.97;100810.59;21055998;28;20203;-85
2023/10/10 08:23:30;;;;;;;32.45;19.90;;;;;;;16.43;63.82;100811.16;21061523;28;20261;-80
2023/10/10 08:33:33;;;;;;;28.95;15.93;;;;;;;16.81;61.43;100824.97;21064625;28;20491;-82
2023/10/10 08:43:38;;;;;;;25.67;14.98;;;;;;;16.97;60.64;100822.22;21050999;28;20302;-87
2023/10/10 08:53:42;;;;;;;23.90;13.82;;;;;;;17.13;60.26;100804.03;21049069;28;20279;-86
2023/10/10 09:03:45;;;;;;;23.90;12.57;;;;;;;17.24;59.68;100809.22;21026608;28;20219;-80
2023/10/10 09:13:52;;;;;;;18.63;11.35;;;;;;;17.73;57.92;100807.72;21038119;28;20214;-87
2023/10/10 09:24:07;;;;;;;16.90;9.23;;;;;;;18.06;54.91;100818.78;21052197;28;20485;-81
2023/10/10 09:34:12;;;;;;;12.90;7.30;;;;;;;18.20;53.54;100813.44;21047900;28;20546;-84
2023/10/10 09:44:36;;;;;;;11.43;6.65;;;;;;;18.93;52.03;100801.31;21053844;28;20595;-84
2023/10/10 09:54:40;;;;;;;9.52;5.38;;;;;;;18.95;51.21;100800.94;21060672;28;20320;-81
2023/10/10 10:04:44;;;;;;;7.88;4.75;;;;;;;18.46;49.64;100800.59;21028888;28;20305;-86
2023/10/10 10:14:54;;;;;;;5.80;3.30;;;;;;;18.67;49.22;100801.16;21030846;28;20195;-87
2023/10/10 10:25:21;;;;;;;6.32;3.30;;;;;;;18.94;47.69;100802.16;21041235;28;20522;-85
2023/10/10 10:35:36;;;;;;;6.78;3.67;;;;;;;19.33;46.08;100805.84;21034411;28;20195;-85
2023/10/10 10:45:44;;;;;;;5.32;3.00;;;;;;;19.29;44.37;100791.50;21057935;28;20249;-84
2023/10/10 10:56:06;;;;;;;5.95;3.78;;;;;;;19.01;45.48;100776.59;21035511;28;20237;-87
2023/10/10 11:06:09;;;;;;;7.97;3.80;;;;;;;19.07;44.47;100763.72;21048870;28;20265;-81
2023/10/10 11:16:12;;;;;;;5.00;3.03;;;;;;;19.71;44.64;100755.56;21062320;28;20663;-81
2023/10/10 11:26:15;;;;;;;7.82;4.30;;;;;;;18.83;45.33;100758.31;21042620;28;20507;-82
2023/10/10 11:36:29;;;;;;;7.07;3.63;;;;;;;19.83;45.22;100730.47;21042828;28;20206;-81
2023/10/10 11:46:31;;;;;;;8.73;3.17;;;;;;;20.07;43.45;100714.16;21049080;28;20572;-85
2023/10/10 11:56:35;;;;;;;8.60;3.38;;;;;;;19.92;42.22;100699.59;21044706;28;20325;-81
2023/10/10 12:06:37;;;;;;;6.00;3.53;;;;;;;20.14;40.97;100691.38;21032043;28;20686;-85
2023/10/10 12:16:40;;;;;;;4.68;2.38;;;;;;;21.11;38.06;100683.66;21043446;28;20206;-85
2023/10/10 12:26:41;;;;;;;4.25;2.40;;;;;;;21.13;37.21;100689.81;21048554;28;20222;-81
2023/10/10 12:36:44;;;;;;;7.32;3.58;;;;;;;20.50;38.49;100684.97;21059867;28;20199;-85
2023/10/10 12:46:46;;;;;;;6.13;3.28;;;;;;;21.42;36.52;100674.63;21068182;28;20222;-85
2023/10/10 12:56:54;;;;;;;6.22;3.55;;;;;;;20.86;35.60;100683.41;21067655;28;20595;-85
2023/10/10 13:07:02;;;;;;;11.57;3.80;;;;;;;20.77;36.29;100671.44;21055236;28;20564;-81
2023/10/10 13:17:28;;;;;;;12.82;3.28;;;;;;;21.08;36.57;100670.13;21044352;28;20195;-85
2023/10/10 13:27:30;;;;;;;13.15;3.50;;;;;;;20.89;37.14;100656.06;21051004;28;20262;-85
2023/10/10 13:37:33;;;;;;;8.45;3.08;;;;;;;21.39;37.96;100640.22;21061060;28;20297;-81
2023/10/10 13:47:36;;;;;;;12.05;2.88;;;;;;;21.31;37.76;100649.94;21080977;28;20309;-86
2023/10/10 13:57:41;;;;;;;10.07;3.90;;;;;;;21.05;37.02;100643.13;21063534;28;20226;-82
2023/10/10 14:07:46;;;;;;;8.45;2.95;;;;;;;21.10;37.04;100639.91;21047664;28;20222;-85
2023/10/10 14:17:49;;;;;;;8.95;3.20;;;;;;;21.25;36.51;100623.75;21054594;28;20203;-81
2023/10/10 14:27:51;;;;;;;8.25;2.83;;;;;;;21.28;36.82;100634.41;21056428;28;20643;-83
2023/10/10 14:37:57;;;;;;;4.50;2.40;;;;;;;20.96;37.35;100628.31;21051462;28;20589;-82
2023/10/10 14:47:59;;;;;;;10.68;2.85;;;;;;;20.87;38.06;100615.56;21021613;28;20249;-85
2023/10/10 14:58:07;;;;;;;8.82;2.65;;;;;;;20.88;38.45;100615.19;21051731;28;20238;-84
2023/10/10 15:08:09;;;;;;;6.50;2.90;;;;;;;21.26;38.04;100608.22;21039329;28;20263;-84
2023/10/10 15:18:14;;;;;;;9.23;3.58;;;;;;;20.89;38.88;100607.41;21060442;28;20591;-82
2023/10/10 15:28:15;;;;;;;5.97;2.83;;;;;;;20.40;40.31;100599.88;21055919;28;20218;-84
2023/10/10 15:38:19;;;;;;;8.45;3.33;;;;;;;20.65;39.88;100600.22;21044278;28;20195;-85
2023/10/10 15:48:24;;;;;;;8.27;3.30;;;;;;;21.22;38.71;100580.75;21049204;28;20226;-84
2023/10/10 15:58:27;;;;;;;7.35;3.58;;;;;;;20.96;39.17;100579.69;21039648;28;20230;-85
2023/10/10 16:08:29;;;;;;;5.15;3.38;;;;;;;20.70;41.53;100579.84;21076462;28;20227;-84
2023/10/10 16:18:33;;;;;;;6.32;3.45;;;;;;;20.43;42.30;100581.94;21051311;28;20241;-81
2023/10/10 16:28:35;;;;;;;7.20;3.72;;;;;;;20.39;43.36;100589.69;21059866;28;20932;-84
2023/10/10 16:38:40;;;;;;;9.90;3.50;;;;;;;19.59;43.84;100588.13;21055576;28;20580;-83
2023/10/10 16:48:42;;;;;;;13.00;4.10;;;;;;;19.91;43.49;100575.13;21060891;28;20222;-81
2023/10/10 16:58:47;;;;;;;7.50;3.80;;;;;;;19.82;42.15;100571.75;21082723;28;20235;-81
2023/10/10 17:08:48;;;;;;;10.30;3.35;;;;;;;19.92;40.88;100579.63;21047475;28;20516;-84
2023/10/10 17:18:52;;;;;;;9.82;4.05;;;;;;;19.16;43.02;100576.00;21082058;28;20199;-84
2023/10/10 17:28:55;;;;;;;8.30;3.58;;;;;;;18.92;43.93;100570.69;21058751;28;20229;-83
2023/10/10 17:39:00;;;;;;;8.73;3.25;;;;;;;18.91;44.83;100569.03;21066363;28;20198;-80
2023/10/10 17:49:02;;;;;;;6.88;3.30;;;;;;;18.74;44.12;100561.81;21051704;28;20272;-85
2023/10/10 17:59:05;;;;;;;7.05;3.17;;;;;;;18.90;42.72;100558.84;21072031;28;20222;-83
2023/10/10 18:09:08;;;;;;;9.73;3.58;;;;;;;18.57;43.87;100560.25;21056506;28;20573;-86
2023/10/10 18:19:15;;;;;;;5.75;2.92;;;;;;;19.14;42.37;100561.28;21052943;28;20194;-85
2023/10/10 18:29:17;;;;;;;9.43;3.63;;;;;;;18.49;43.55;100558.47;21050929;28;20235;-85
2023/10/10 18:39:20;;;;;;;8.95;3.10;;;;;;;18.09;45.09;100544.63;21028665;28;20195;-84
2023/10/10 18:49:22;;;;;;;5.88;3.53;;;;;;;17.90;45.87;100541.75;21042102;28;20222;-83
2023/10/10 18:59:25;;;;;;;7.80;2.88;;;;;;;18.06;45.62;100527.44;21021493;28;20257;-85
2023/10/10 19:09:27;;;;;;;7.93;3.75;;;;;;;17.72;46.52;100527.13;21056666;28;20218;-85
2023/10/10 19:19:31;;;;;;;8.10;2.70;;;;;;;17.61;47.23;100513.88;21062523;28;20198;-83
2023/10/10 19:29:33;;;;;;;8.65;3.15;;;;;;;17.41;47.65;100510.16;21063153;28;20609;-79
2023/10/10 19:39:38;;;;;;;7.38;3.05;;;;;;;17.73;47.75;100497.47;21086814;28;20476;-83
2023/10/10 19:49:40;;;;;;;6.53;3.65;;;;;;;17.39;49.47;100486.97;21066342;28;20230;-80
2023/10/10 19:59:44;;;;;;;6.13;3.35;;;;;;;17.34;50.65;100490.09;21074089;28;20237;-80
2023/10/10 20:09:46;;;;;;;9.27;4.03;;;;;;;17.70;50.74;100492.50;21059615;28;20225;-83
2023/10/10 20:19:50;;;;;;;7.63;3.97;;;;;;;17.08;53.64;100482.13;21076598;28;20202;-81
2023/10/10 20:29:54;;;;;;;9.65;3.50;;;;;;;17.41;53.53;100479.69;21094907;28;20213;-81
2023/10/10 20:39:57;;;;;;;5.18;3.22;;;;;;;17.32;54.63;100478.25;21082569;28;20207;-82
2023/10/10 20:50:01;;;;;;;5.47;3.00;;;;;;;17.18;53.86;100468.16;21081576;28;20222;-83
2023/10/10 21:00:06;;;;;;;6.18;3.45;;;;;;;17.13;53.77;100459.94;21068267;28;20199;-81
2023/10/10 21:10:08;;;;;;;6.07;3.20;;;;;;;16.82;54.36;100457.97;21074184;28;20214;-84
2023/10/10 21:20:13;;;;;;;6.45;3.25;;;;;;;16.93;53.16;100460.22;21058832;28;20290;-82
2023/10/10 21:30:14;;;;;;;5.88;3.15;;;;;;;17.17;52.34;100452.28;21065143;28;20262;-80
2023/10/10 21:40:21;;;;;;;6.32;3.08;;;;;;;17.08;52.10;100439.47;21061457;28;20285;-84
2023/10/10 21:50:24;;;;;;;4.18;3.28;;;;;;;16.72;52.46;100446.34;21087889;28;20218;-83
2023/10/10 22:10:44;;;;;;;4.85;2.72;;;;;;;17.28;49.41;100431.84;21062531;28;20226;-80
2023/10/10 22:20:48;;;;;;;5.18;2.90;;;;;;;17.43;47.96;100422.41;21063892;28;20289;-80
2023/10/10 22:30:49;;;;;;;4.75;2.75;;;;;;;17.12;47.70;100424.16;21058629;28;20195;-82
2023/10/10 22:40:54;;;;;;;5.38;2.72;;;;;;;17.53;46.94;100405.59;21053226;28;20199;-81
2023/10/10 22:50:56;;;;;;;6.10;2.65;;;;;;;17.37;45.60;100409.69;21072057;28;20233;-80
2023/10/10 23:00:59;;;;;;;5.47;2.40;;;;;;;17.60;44.92;100402.06;21076875;28;20232;-83
2023/10/10 23:11:01;;;;;;;8.88;3.17;;;;;;;17.35;45.40;100398.69;21058674;28;20194;-80
2023/10/10 23:21:07;;;;;;;7.57;2.33;;;;;;;17.41;45.00;100396.34;21083474;28;20213;-81
2023/10/10 23:31:09;;;;;;;8.95;2.92;;;;;;;17.87;44.05;100392.44;21057963;28;20252;-84
2023/10/10 23:41:14;;;;;;;4.88;2.45;;;;;;;17.35;44.92;100383.63;21055398;28;20540;-81
2023/10/10 23:51:19;;;;;;;7.65;2.85;;;;;;;17.21;45.74;100396.31;21063900;28;20626;-80
